createdAt,value
2019-02-22T00:01:22.359Z,16.95
2019-02-22T00:03:53.657Z,11.65
2019-02-22T00:06:25.113Z,20.27
2019-02-22T00:08:57.651Z,15.55
2019-02-22T00:11:28.921Z,17.98
2019-02-22T00:14:00.600Z,17.65
2019-02-22T00:16:32.509Z,12.98
2019-02-22T00:19:04.172Z,13.05
2019-02-22T00:21:35.517Z,17.65
2019-02-22T00:24:06.823Z,9.70
2019-02-22T00:26:38.722Z,16.25
2019-02-22T00:29:29.196Z,18.95
2019-02-22T00:32:00.414Z,11.80
2019-02-22T00:34:31.896Z,11.10
2019-02-22T00:37:03.198Z,17.30
2019-02-22T00:39:40.552Z,16.97
2019-02-22T00:42:11.984Z,9.60
2019-02-22T00:44:43.909Z,16.67
2019-02-22T00:47:15.263Z,14.43
2019-02-22T00:49:46.683Z,9.63
2019-02-22T00:52:19.500Z,17.55
2019-02-22T00:54:52.945Z,14.93
2019-02-22T00:57:24.691Z,21.37
2019-02-22T00:59:57.269Z,14.40
2019-02-22T01:02:28.546Z,6.65
2019-02-22T01:04:59.939Z,13.35
2019-02-22T01:07:31.216Z,9.20
2019-02-22T01:10:02.451Z,12.78
2019-02-22T01:12:33.799Z,11.18
2019-02-22T01:15:05.792Z,7.92
2019-02-22T01:17:37.591Z,8.85
2019-02-22T01:20:09.332Z,13.78
2019-02-22T01:22:40.706Z,16.45
2019-02-22T01:25:11.990Z,11.63
2019-02-22T01:27:44.362Z,11.28
2019-02-22T01:30:15.848Z,13.53
2019-02-22T01:32:47.180Z,13.48
2019-02-22T01:35:18.934Z,21.87
2019-02-22T01:37:50.265Z,13.32
2019-02-22T01:40:21.622Z,16.15
2019-02-22T01:42:52.871Z,12.98
2019-02-22T01:45:24.145Z,20.88
2019-02-22T01:47:55.812Z,15.28
2019-02-22T01:50:28.477Z,14.68
2019-02-22T01:53:00.110Z,13.15
2019-02-22T01:55:31.667Z,15.38
2019-02-22T01:58:02.914Z,10.20
2019-02-22T02:00:34.232Z,14.18
2019-02-22T02:03:05.589Z,11.30
2019-02-22T02:05:37.004Z,12.53
2019-02-22T02:08:11.384Z,8.07
2019-02-22T02:10:53.674Z,6.22
2019-02-22T02:13:16.516Z,12.47
2019-02-22T02:15:48.305Z,10.58
2019-02-22T02:18:19.945Z,8.93
2019-02-22T02:20:51.791Z,4.20
2019-02-22T02:23:23.062Z,8.35
2019-02-22T02:25:54.819Z,5.23
2019-02-22T02:28:26.553Z,10.15
2019-02-22T02:30:58.413Z,11.43
2019-02-22T02:33:30.082Z,6.97
2019-02-22T02:36:01.385Z,7.15
2019-02-22T02:38:33.049Z,9.05
2019-02-22T02:41:08.457Z,13.25
2019-02-22T02:43:37.328Z,7.97
2019-02-22T02:46:09.124Z,11.53
2019-02-22T02:48:40.309Z,14.23
2019-02-22T02:51:11.661Z,12.05
2019-02-22T02:53:42.912Z,10.18
2019-02-22T02:56:14.280Z,14.93
2019-02-22T02:58:45.617Z,6.17
2019-02-22T03:01:17.046Z,7.53
2019-02-22T03:03:48.311Z,10.00
2019-02-22T03:06:34.046Z,9.60
2019-02-22T03:09:06.479Z,9.23
2019-02-22T03:11:39.558Z,5.63
2019-02-22T03:14:10.822Z,9.68
2019-02-22T03:16:42.515Z,7.47
2019-02-22T03:19:13.776Z,8.40
2019-02-22T03:21:45.069Z,7.17
2019-02-22T03:24:17.200Z,6.12
2019-02-22T03:26:49.231Z,4.97
2019-02-22T03:29:20.520Z,4.08
2019-02-22T03:31:51.731Z,3.35
2019-02-22T03:34:23.698Z,3.40
2019-02-22T03:36:54.998Z,4.08
2019-02-22T03:39:26.193Z,4.78
2019-02-22T03:41:57.847Z,4.47
2019-02-22T03:44:29.489Z,5.60
2019-02-22T03:47:00.857Z,4.75
2019-02-22T03:49:32.124Z,7.70
2019-02-22T03:52:22.184Z,7.87
2019-02-22T03:54:53.630Z,8.23
2019-02-22T03:57:25.277Z,6.57
2019-02-22T03:59:57.026Z,9.53
2019-02-22T04:02:28.679Z,7.05
2019-02-22T04:05:00.029Z,7.93
2019-02-22T04:07:32.010Z,6.10
2019-02-22T04:10:03.940Z,6.15
2019-02-22T04:12:35.334Z,7.10
2019-02-22T04:15:07.279Z,9.58
2019-02-22T04:17:38.591Z,8.93
2019-02-22T04:20:10.112Z,7.03
2019-02-22T04:22:44.229Z,5.22
2019-02-22T04:25:14.355Z,5.97
2019-02-22T04:27:45.616Z,7.62
2019-02-22T04:30:16.891Z,7.63
2019-02-22T04:32:48.126Z,8.57
2019-02-22T04:35:19.798Z,9.10
2019-02-22T04:37:51.235Z,6.78
2019-02-22T04:40:23.036Z,7.37
2019-02-22T04:42:54.916Z,6.53
2019-02-22T04:45:26.189Z,7.10
2019-02-22T04:47:57.463Z,6.60
2019-02-22T04:50:28.694Z,5.90
2019-02-22T04:52:59.979Z,1.43
2019-02-22T04:55:31.322Z,5.93
2019-02-22T04:58:02.779Z,6.45
2019-02-22T05:00:34.604Z,6.13
2019-02-22T05:03:06.464Z,6.67
2019-02-22T05:05:37.747Z,8.47
2019-02-22T05:08:09.049Z,5.93
2019-02-22T05:10:40.253Z,6.67
2019-02-22T05:13:11.545Z,7.13
2019-02-22T05:15:42.879Z,6.57
2019-02-22T05:18:14.244Z,6.47
2019-02-22T05:20:45.826Z,7.97
2019-02-22T05:23:17.433Z,9.10
2019-02-22T05:25:49.512Z,10.90
2019-02-22T05:28:20.766Z,9.68
2019-02-22T05:30:51.933Z,8.23
2019-02-22T05:33:23.283Z,6.50
2019-02-22T05:35:54.445Z,7.40
2019-02-22T05:38:26.301Z,6.87
2019-02-22T05:40:57.996Z,7.27
2019-02-22T05:43:29.281Z,6.30
2019-02-22T05:46:00.866Z,3.95
2019-02-22T05:48:32.854Z,5.07
2019-02-22T05:51:04.170Z,5.77
2019-02-22T05:53:35.575Z,5.20
2019-02-22T05:56:08.339Z,5.77
2019-02-22T05:58:39.607Z,7.33
2019-02-22T06:01:10.953Z,6.80
2019-02-22T06:03:43.116Z,4.10
2019-02-22T06:06:14.836Z,3.37
2019-02-22T06:08:47.322Z,5.00
2019-02-22T06:11:19.781Z,2.73
2019-02-22T06:13:51.508Z,5.07
2019-02-22T06:16:24.456Z,7.22
2019-02-22T06:18:57.155Z,2.10
2019-02-22T06:21:28.661Z,4.50
2019-02-22T06:24:02.715Z,5.28
2019-02-22T06:26:33.287Z,5.90
2019-02-22T06:29:05.715Z,5.40
2019-02-22T06:31:37.022Z,6.55
2019-02-22T06:34:08.536Z,4.70
2019-02-22T06:36:39.848Z,9.50
2019-02-22T06:39:11.095Z,6.97
2019-02-22T06:41:42.747Z,5.63
2019-02-22T06:44:14.551Z,6.10
2019-02-22T06:46:45.823Z,5.40
2019-02-22T06:49:17.142Z,5.13
2019-02-22T06:51:48.563Z,6.17
2019-02-22T06:54:20.617Z,5.17
2019-02-22T06:56:53.065Z,4.12
2019-02-22T06:59:25.572Z,5.03
2019-02-22T07:01:57.401Z,2.27
2019-02-22T07:04:28.709Z,5.20
2019-02-22T07:06:59.924Z,6.23
2019-02-22T07:09:31.644Z,4.77
2019-02-22T07:12:13.197Z,4.25
2019-02-22T07:14:47.526Z,7.07
2019-02-22T07:17:18.985Z,5.40
2019-02-22T07:19:50.613Z,10.32
2019-02-22T07:22:21.988Z,4.13
2019-02-22T07:24:53.313Z,5.95
2019-02-22T07:27:24.988Z,4.77
2019-02-22T07:29:56.680Z,6.40
2019-02-22T07:32:28.195Z,6.97
2019-02-22T07:34:59.511Z,5.30
2019-02-22T07:37:31.315Z,5.30
2019-02-22T07:40:02.923Z,5.73
2019-02-22T07:42:34.811Z,6.60
2019-02-22T07:45:08.232Z,5.93
2019-02-22T07:47:39.596Z,6.43
2019-02-22T07:50:12.344Z,6.95
2019-02-22T07:52:45.296Z,9.77
2019-02-22T07:55:16.644Z,5.07
2019-02-22T07:57:48.780Z,5.12
2019-02-22T08:00:21.037Z,7.20
2019-02-22T08:02:52.339Z,4.47
2019-02-22T08:05:23.763Z,5.00
2019-02-22T08:07:55.172Z,5.27
2019-02-22T08:10:27.375Z,5.80
2019-02-22T08:12:58.788Z,6.47
2019-02-22T08:15:30.648Z,2.02
2019-02-22T08:18:03.803Z,5.37
2019-02-22T08:20:36.104Z,5.67
2019-02-22T08:23:07.995Z,5.57
2019-02-22T08:25:39.537Z,2.40
2019-02-22T08:28:11.368Z,5.20
2019-02-22T08:30:43.008Z,5.70
2019-02-22T08:33:14.583Z,10.70
2019-02-22T08:35:46.182Z,5.97
2019-02-22T08:38:18.005Z,5.43
2019-02-22T08:40:50.170Z,4.47
2019-02-22T08:43:31.584Z,4.20
2019-02-22T08:45:57.970Z,4.60
2019-02-22T08:48:31.548Z,2.70
2019-02-22T08:51:23.834Z,1.85
2019-02-22T08:53:55.745Z,1.53
2019-02-22T08:56:27.394Z,1.27
2019-02-22T08:58:59.375Z,4.23
2019-02-22T09:01:30.908Z,1.70
2019-02-22T09:04:02.744Z,3.77
2019-02-22T09:06:34.665Z,1.80
2019-02-22T09:09:06.474Z,2.63
2019-02-22T09:11:38.455Z,2.00
2019-02-22T09:14:11.092Z,3.03
2019-02-22T09:16:43.149Z,5.10
2019-02-22T09:19:15.195Z,3.37
2019-02-22T09:21:46.714Z,3.83
2019-02-22T09:24:18.527Z,3.80
2019-02-22T09:26:50.331Z,4.13
2019-02-22T09:29:22.218Z,2.77
2019-02-22T09:31:54.458Z,1.43
2019-02-22T09:34:25.877Z,5.63
2019-02-22T09:36:59.093Z,3.77
2019-02-22T09:39:30.705Z,4.07
2019-02-22T09:42:02.034Z,2.80
2019-02-22T09:44:33.381Z,2.63
2019-02-22T09:47:04.657Z,4.47
2019-02-22T09:49:35.901Z,2.75
2019-02-22T09:52:07.647Z,4.40
2019-02-22T09:54:38.930Z,3.57
2019-02-22T09:57:10.211Z,2.67
2019-02-22T09:59:41.903Z,4.30
2019-02-22T10:02:16.453Z,2.83
2019-02-22T10:04:55.525Z,2.50
2019-02-22T10:07:27.631Z,4.43
2019-02-22T10:09:59.905Z,5.40
2019-02-22T10:12:31.660Z,6.70
2019-02-22T10:15:02.948Z,5.80
2019-02-22T10:17:35.701Z,4.27
2019-02-22T10:20:07.233Z,4.47
2019-02-22T10:22:38.536Z,5.70
2019-02-22T10:25:09.883Z,6.37
2019-02-22T10:27:41.305Z,4.90
2019-02-22T10:31:41.465Z,4.05
2019-02-22T10:34:13.770Z,6.35
2019-02-22T10:36:45.673Z,3.37
2019-02-22T10:39:17.207Z,6.47
2019-02-22T10:41:48.708Z,4.60
2019-02-22T10:44:20.335Z,4.47
2019-02-22T10:46:52.295Z,6.87
2019-02-22T10:49:23.552Z,6.60
2019-02-22T10:51:54.855Z,6.30
2019-02-22T10:54:26.691Z,6.17
2019-02-22T10:56:57.991Z,7.10
2019-02-22T10:59:29.346Z,6.80
2019-02-22T11:02:01.084Z,6.03
2019-02-22T11:04:32.653Z,7.23
2019-02-22T11:07:03.848Z,7.30
2019-02-22T11:09:35.251Z,2.80
2019-02-22T11:12:06.763Z,7.13
2019-02-22T11:14:39.859Z,2.52
2019-02-22T11:17:11.306Z,7.87
2019-02-22T11:19:44.639Z,6.17
2019-02-22T11:23:21.279Z,6.53
2019-02-22T11:25:53.298Z,8.57
2019-02-22T11:28:24.904Z,7.53
2019-02-22T11:30:56.559Z,9.38
2019-02-22T11:33:43.797Z,8.73
2019-02-22T11:36:16.223Z,6.40
2019-02-22T11:38:47.493Z,9.63
2019-02-22T11:41:19.170Z,7.17
2019-02-22T11:43:50.640Z,8.55
2019-02-22T11:46:22.041Z,6.00
2019-02-22T11:48:53.878Z,7.77
2019-02-22T11:51:25.389Z,7.60
2019-02-22T11:53:57.672Z,5.45
2019-02-22T11:56:29.744Z,5.37
2019-02-22T11:59:01.290Z,4.97
2019-02-22T12:01:51.707Z,5.37
2019-02-22T12:04:23.110Z,7.00
2019-02-22T12:06:54.396Z,4.15
2019-02-22T12:09:26.253Z,5.35
2019-02-22T12:11:58.530Z,4.80
2019-02-22T12:14:30.627Z,4.22
2019-02-22T12:17:02.864Z,4.63
2019-02-22T12:21:19.817Z,7.15
2019-02-22T12:23:52.964Z,3.27
2019-02-22T12:29:15.320Z,5.45
2019-02-22T12:31:46.878Z,5.62
2019-02-22T12:34:21.201Z,4.50
2019-02-22T12:36:54.184Z,3.07
2019-02-22T12:39:25.610Z,5.97
2019-02-22T12:41:58.618Z,5.03
2019-02-22T12:44:31.095Z,5.33
2019-02-22T12:47:03.596Z,4.00
2019-02-22T12:49:35.774Z,6.42
2019-02-22T12:52:07.169Z,4.33
2019-02-22T12:54:38.759Z,6.37
2019-02-22T12:57:11.354Z,8.28
2019-02-22T12:59:43.416Z,10.65
2019-02-22T13:02:15.394Z,27.67
2019-02-22T13:04:48.127Z,15.23
2019-02-22T13:07:21.256Z,8.33
2019-02-22T13:09:53.410Z,8.75
2019-02-22T13:12:24.908Z,29.50
2019-02-22T13:14:56.507Z,8.43
2019-02-22T13:17:31.020Z,6.03
2019-02-22T13:20:02.203Z,4.00
2019-02-22T13:22:34.193Z,4.45
2019-02-22T13:25:05.759Z,7.08
2019-02-22T13:27:37.213Z,4.33
2019-02-22T13:30:09.717Z,6.22
2019-02-22T13:32:43.136Z,6.08
2019-02-22T13:35:14.415Z,7.00
2019-02-22T13:37:46.469Z,6.57
2019-02-22T13:40:17.962Z,5.65
2019-02-22T13:42:49.382Z,8.13
2019-02-22T13:45:26.478Z,3.50
2019-02-22T13:47:54.489Z,5.20
2019-02-22T13:50:25.982Z,5.30
2019-02-22T13:52:57.794Z,10.55
2019-02-22T13:55:29.698Z,5.22
2019-02-22T13:58:02.171Z,6.20
2019-02-22T14:00:33.722Z,6.45
2019-02-22T14:03:06.123Z,4.95
2019-02-22T14:05:38.234Z,5.83
2019-02-22T14:08:10.015Z,3.65
2019-02-22T14:10:42.223Z,6.45
2019-02-22T14:13:14.128Z,5.05
2019-02-22T14:15:47.395Z,4.93
2019-02-22T14:18:18.901Z,6.05
2019-02-22T14:20:50.548Z,5.37
2019-02-22T14:23:22.484Z,7.08
2019-02-22T14:25:53.985Z,8.65
2019-02-22T14:28:26.762Z,5.85
2019-02-22T14:30:58.486Z,7.00
2019-02-22T14:33:29.922Z,9.98
2019-02-22T14:36:01.481Z,5.70
2019-02-22T14:38:33.225Z,4.92
2019-02-22T14:41:04.726Z,4.08
2019-02-22T14:43:37.043Z,3.67
2019-02-22T14:46:08.948Z,3.93
2019-02-22T14:48:40.800Z,5.20
2019-02-22T14:51:16.793Z,4.73
2019-02-22T14:53:52.912Z,4.30
2019-02-22T14:56:24.905Z,5.17
2019-02-22T14:58:56.662Z,5.57
2019-02-22T15:01:28.231Z,5.03
2019-02-22T15:03:59.511Z,4.67
2019-02-22T15:06:31.527Z,5.03
2019-02-22T15:09:04.578Z,4.08
2019-02-22T15:11:36.711Z,4.35
2019-02-22T15:14:08.537Z,5.40
2019-02-22T15:16:57.659Z,5.55
2019-02-22T15:19:29.084Z,5.95
2019-02-22T15:22:03.878Z,6.22
2019-02-22T15:24:37.150Z,6.50
2019-02-22T15:27:09.257Z,3.35
2019-02-22T15:29:40.631Z,5.65
2019-02-22T15:32:12.564Z,4.30
2019-02-22T15:34:44.413Z,6.90
2019-02-22T15:37:15.665Z,6.53
2019-02-22T15:39:48.473Z,7.23
2019-02-22T15:42:20.032Z,12.15
2019-02-22T15:44:53.843Z,15.53
2019-02-22T15:47:25.207Z,6.90
2019-02-22T15:49:56.810Z,5.35
2019-02-22T15:52:29.128Z,5.20
2019-02-22T15:55:02.071Z,8.30
2019-02-22T15:57:34.312Z,3.93
2019-02-22T16:00:08.246Z,6.73
2019-02-22T16:02:40.519Z,5.00
2019-02-22T16:05:22.856Z,10.15
2019-02-22T16:07:54.099Z,4.47
2019-02-22T16:10:25.336Z,21.70
2019-02-22T16:12:56.972Z,21.70
2019-02-22T16:15:28.753Z,21.95
2019-02-22T16:18:00.652Z,6.37
2019-02-22T16:20:32.377Z,4.25
2019-02-22T16:23:04.858Z,11.83
2019-02-22T16:25:36.206Z,9.35
2019-02-22T16:28:07.576Z,6.90
2019-02-22T16:30:39.070Z,7.43
2019-02-22T16:33:10.652Z,6.05
2019-02-22T16:35:42.996Z,5.90
2019-02-22T16:38:14.615Z,6.63
2019-02-22T16:40:46.235Z,5.30
2019-02-22T16:43:18.024Z,5.58
2019-02-22T16:45:49.825Z,6.15
2019-02-22T16:48:21.225Z,7.00
2019-02-22T16:50:52.811Z,5.87
2019-02-22T16:53:24.074Z,5.90
2019-02-22T16:55:55.445Z,7.67
2019-02-22T16:58:26.745Z,6.67
2019-02-22T17:00:58.079Z,6.20
2019-02-22T17:03:29.334Z,6.00
2019-02-22T17:06:01.709Z,8.87
2019-02-22T17:08:33.656Z,6.30
2019-02-22T17:11:05.924Z,10.07
2019-02-22T17:13:37.684Z,6.22
2019-02-22T17:16:09.798Z,5.45
2019-02-22T17:18:41.078Z,5.70
2019-02-22T17:21:12.497Z,6.42
2019-02-22T17:23:44.131Z,6.12
2019-02-22T17:26:21.138Z,8.10
2019-02-22T17:28:52.625Z,8.77
2019-02-22T17:31:25.736Z,9.43
2019-02-22T17:33:57.378Z,13.27
2019-02-22T17:36:31.352Z,8.58
2019-02-22T17:39:02.253Z,7.47
2019-02-22T17:41:35.609Z,7.33
2019-02-22T17:44:07.244Z,6.97
2019-02-22T17:46:38.913Z,9.23
2019-02-22T17:49:11.155Z,9.70
2019-02-22T17:51:42.839Z,8.13
2019-02-22T17:54:14.318Z,6.70
2019-02-22T17:56:45.718Z,10.08
2019-02-22T17:59:21.915Z,5.30
2019-02-22T18:01:53.748Z,10.10
2019-02-22T18:04:27.379Z,6.73
2019-02-22T18:06:59.600Z,7.50
2019-02-22T18:09:31.637Z,8.37
2019-02-22T18:12:03.892Z,10.15
2019-02-22T18:14:37.082Z,8.58
2019-02-22T18:17:09.254Z,8.53
2019-02-22T18:19:41.615Z,12.10
2019-02-22T18:22:25.744Z,7.00
2019-02-22T18:24:57.708Z,5.83
2019-02-22T18:27:30.775Z,6.65
2019-02-22T18:30:02.711Z,7.37
2019-02-22T18:32:35.625Z,7.27
2019-02-22T18:35:08.593Z,12.63
2019-02-22T18:37:42.656Z,10.20
2019-02-22T18:40:22.058Z,13.00
2019-02-22T18:42:54.174Z,11.53
2019-02-22T18:48:24.209Z,11.40
2019-02-22T18:50:57.721Z,9.77
2019-02-22T18:53:29.563Z,8.68
2019-02-22T18:56:01.935Z,6.77
2019-02-22T18:58:33.694Z,7.87
2019-02-22T19:01:05.854Z,9.67
2019-02-22T19:03:38.353Z,7.03
2019-02-22T19:06:10.948Z,8.97
2019-02-22T19:08:53.294Z,10.67
2019-02-22T19:11:25.445Z,13.60
2019-02-22T19:13:58.757Z,12.00
2019-02-22T19:16:31.352Z,9.17
2019-02-22T19:19:02.815Z,10.30
2019-02-22T19:21:34.673Z,8.73
2019-02-22T19:24:06.286Z,11.73
2019-02-22T19:26:40.062Z,6.63
2019-02-22T19:29:11.990Z,13.17
2019-02-22T19:31:43.916Z,7.40
2019-02-22T19:34:15.926Z,11.07
2019-02-22T19:36:48.092Z,7.15
2019-02-22T19:39:20.208Z,6.87
2019-02-22T19:41:52.782Z,8.87
2019-02-22T19:44:24.287Z,8.80
2019-02-22T19:46:56.525Z,6.25
2019-02-22T19:49:30.925Z,10.40
2019-02-22T19:52:02.909Z,13.50
2019-02-22T19:54:36.140Z,11.07
2019-02-22T19:57:07.837Z,7.90
2019-02-22T19:59:39.141Z,9.13
2019-02-22T20:02:11.369Z,7.93
2019-02-22T20:04:43.116Z,8.73
2019-02-22T20:07:15.098Z,8.37
2019-02-22T20:09:47.645Z,6.97
2019-02-22T20:12:19.492Z,8.07
2019-02-22T20:14:51.399Z,6.33
2019-02-22T20:17:22.881Z,6.93
2019-02-22T20:19:54.664Z,8.13
2019-02-22T20:22:26.501Z,6.53
2019-02-22T20:24:57.980Z,5.93
2019-02-22T20:27:30.440Z,7.67
2019-02-22T20:30:02.161Z,7.97
2019-02-22T20:32:35.701Z,7.30
2019-02-22T20:35:09.042Z,8.47
2019-02-22T20:37:51.749Z,9.27
2019-02-22T20:40:22.554Z,7.73
2019-02-22T20:42:55.192Z,11.13
2019-02-22T20:45:29.201Z,13.50
2019-02-22T20:48:05.105Z,8.07
2019-02-22T20:50:34.882Z,8.03
2019-02-22T20:53:06.882Z,8.70
2019-02-22T20:55:40.104Z,6.53
2019-02-22T20:58:11.788Z,6.87
2019-02-22T21:00:43.959Z,22.20
2019-02-22T21:03:18.011Z,9.50
2019-02-22T21:05:49.918Z,7.63
2019-02-22T21:08:24.613Z,7.93
2019-02-22T21:10:55.678Z,8.60
2019-02-22T21:13:28.676Z,11.43
2019-02-22T21:16:00.943Z,8.13
2019-02-22T21:18:32.597Z,9.23
2019-02-22T21:21:05.091Z,7.90
2019-02-22T21:23:36.655Z,9.40
2019-02-22T21:26:08.026Z,9.03
2019-02-22T21:28:39.592Z,11.60
2019-02-22T21:31:10.958Z,9.33
2019-02-22T21:33:42.258Z,8.03
2019-02-22T21:36:16.953Z,8.00
2019-02-22T21:38:48.872Z,8.80
2019-02-22T21:41:20.548Z,7.50
2019-02-22T21:43:52.501Z,9.13
2019-02-22T21:46:24.199Z,10.10
2019-02-22T21:48:55.909Z,12.67
2019-02-22T21:51:28.305Z,8.93
2019-02-22T21:54:00.134Z,8.43
2019-02-22T21:56:36.285Z,9.17
2019-02-22T21:59:08.043Z,8.03
2019-02-22T22:01:39.958Z,9.97
2019-02-22T22:04:12.406Z,10.23
2019-02-22T22:06:45.084Z,8.23
2019-02-22T22:09:17.134Z,8.50
2019-02-22T22:11:49.920Z,8.67
2019-02-22T22:14:25.565Z,7.10
2019-02-22T22:16:59.206Z,9.73
2019-02-22T22:19:31.174Z,8.23
2019-02-22T22:22:03.064Z,8.83
2019-02-22T22:24:35.983Z,9.53
2019-02-22T22:27:07.922Z,8.57
2019-02-22T22:29:42.277Z,10.17
2019-02-22T22:32:14.015Z,8.63
2019-02-22T22:34:51.282Z,8.27
2019-02-22T22:37:24.780Z,9.87
2019-02-22T22:39:56.170Z,9.80
2019-02-22T22:42:28.679Z,9.80
2019-02-22T22:45:00.901Z,10.33
2019-02-22T22:47:32.421Z,8.80
2019-02-22T22:52:54.968Z,6.87
2019-02-22T22:55:27.214Z,7.00
2019-02-22T22:57:59.699Z,8.10
2019-02-22T23:01:30.293Z,7.67
2019-02-22T23:04:02.337Z,6.30
2019-02-22T23:06:38.675Z,9.83
2019-02-22T23:09:17.585Z,6.10
2019-02-22T23:11:51.194Z,6.77
2019-02-22T23:14:24.799Z,7.50
2019-02-22T23:16:56.787Z,7.10
2019-02-22T23:19:28.236Z,5.20
2019-02-22T23:22:02.773Z,5.57
2019-02-22T23:27:29.364Z,5.33
2019-02-22T23:30:01.540Z,7.10
2019-02-22T23:32:36.291Z,6.50
2019-02-22T23:35:08.982Z,5.50
2019-02-22T23:37:41.657Z,7.27
2019-02-22T23:40:13.251Z,6.17
2019-02-22T23:42:45.515Z,6.60
2019-02-22T23:45:17.073Z,7.63
2019-02-22T23:48:37.339Z,5.43
2019-02-22T23:51:09.771Z,7.43
2019-02-22T23:53:41.199Z,5.80
2019-02-22T23:56:15.017Z,5.53
2019-02-22T23:58:47.448Z,7.40
